Time;durP1;ratioP1;P1;durP2;ratioP2;P2;SDS_P1;SDS_P2;PMS_P1;PMS_P2;Temp;Humidity;BMP_temperature;BMP_pressure;BME280_temperature;BME280_humidity;BME280_pressure;Samples;Min_cycle;Max_cycle;Signal;HPM_P1;HPM_P2
2021/03/16 00:01:11;;;;;;;11.23;3.90;;;;;;;5.27;56.90;93230.69;4890988;29;20036;-85
2021/03/16 00:03:39;;;;;;;10.73;4.75;;;;;;;5.26;57.24;93231.69;4895710;29;20040;-85
2021/03/16 00:06:08;;;;;;;6.22;2.92;;;;;;;5.23;57.35;93229.59;4908757;29;20480;-84
2021/03/16 00:08:33;;;;;;;6.00;3.58;;;;;;;5.22;57.18;93225.47;4907208;29;20412;-84
2021/03/16 00:10:59;;;;;;;5.65;3.70;;;;;;;5.17;57.43;93215.06;4928556;23;20500;-84
2021/03/16 00:13:24;;;;;;;6.10;2.63;;;;;;;5.21;56.92;93221.31;4966075;23;20048;-84
2021/03/16 00:15:50;;;;;;;3.78;2.83;;;;;;;5.13;57.23;93219.13;4908952;29;20035;-85
2021/03/16 00:18:18;;;;;;;2.08;1.90;;;;;;;5.12;57.28;93217.59;4916916;29;20036;-84
2021/03/16 00:20:45;;;;;;;2.05;1.88;;;;;;;5.12;57.07;93222.72;4901845;29;20505;-85
2021/03/16 00:23:11;;;;;;;3.30;2.38;;;;;;;5.14;56.84;93215.53;4926217;29;20046;-84
2021/03/16 00:25:37;;;;;;;2.22;1.95;;;;;;;5.20;56.94;93217.16;4926716;29;20063;-85
2021/03/16 00:28:05;;;;;;;3.38;3.00;;;;;;;5.21;56.86;93223.13;4919837;29;20527;-85
2021/03/16 00:30:31;;;;;;;2.85;2.38;;;;;;;5.17;57.35;93222.78;4944933;23;20043;-86
2021/03/16 00:35:31;;;;;;;2.38;1.92;;;;;;;5.30;57.04;93229.41;4978352;23;20059;-86
2021/03/16 00:37:57;;;;;;;2.33;2.10;;;;;;;5.33;57.26;93224.56;4957136;28;20039;-87
2021/03/16 00:40:22;;;;;;;2.15;2.00;;;;;;;5.36;56.92;93226.66;4955602;29;20491;-87
2021/03/16 00:42:48;;;;;;;2.53;2.17;;;;;;;5.37;56.28;93222.31;4956693;29;20491;-85
2021/03/16 00:45:14;;;;;;;2.03;1.85;;;;;;;5.33;56.96;93219.41;4938773;29;20484;-85
2021/03/16 00:47:39;;;;;;;2.35;2.05;;;;;;;5.37;56.57;93223.09;4938827;29;20034;-84
2021/03/16 00:50:06;;;;;;;1.92;1.83;;;;;;;5.36;56.61;93218.91;4932410;29;20039;-85
2021/03/16 00:52:32;;;;;;;2.38;2.20;;;;;;;5.36;57.19;93221.50;4957206;29;20061;-85
2021/03/16 00:54:58;;;;;;;2.38;2.20;;;;;;;5.29;57.96;93209.81;4956005;29;20110;-85
2021/03/16 00:57:23;;;;;;;1.77;1.67;;;;;;;5.36;57.22;93218.16;4954191;29;20295;-86
2021/03/16 00:59:49;;;;;;;2.00;1.90;;;;;;;5.35;57.51;93219.16;4915368;29;20109;-85
2021/03/16 01:02:15;;;;;;;2.75;2.45;;;;;;;5.14;57.81;93212.97;4913082;29;20043;-85
2021/03/16 01:04:40;;;;;;;4.00;3.05;;;;;;;5.18;58.45;93211.47;4940334;29;20074;-86
2021/03/16 01:07:06;;;;;;;2.22;2.03;;;;;;;5.16;59.15;93218.66;4938461;29;20043;-85
2021/03/16 01:09:31;;;;;;;2.45;2.05;;;;;;;5.13;58.90;93203.69;4955400;29;20039;-85
2021/03/16 01:11:57;;;;;;;1.85;1.75;;;;;;;5.09;58.70;93221.41;4939816;29;20027;-85
2021/03/16 01:14:22;;;;;;;2.42;2.22;;;;;;;5.06;59.43;93215.97;4938646;29;20507;-85
2021/03/16 01:16:48;;;;;;;1.95;1.85;;;;;;;5.01;58.84;93208.13;4954758;28;20038;-86
2021/03/16 01:19:14;;;;;;;2.42;2.22;;;;;;;4.96;59.49;93208.84;4980950;23;20036;-85
2021/03/16 01:21:39;;;;;;;2.38;1.98;;;;;;;4.94;59.77;93217.84;4936954;29;20040;-86
2021/03/16 01:24:05;;;;;;;2.58;2.28;;;;;;;4.92;59.78;93214.72;4936016;29;20023;-86
2021/03/16 01:26:31;;;;;;;3.92;3.00;;;;;;;4.89;59.65;93205.69;4937516;29;20514;-85
2021/03/16 01:28:56;;;;;;;2.00;1.80;;;;;;;4.82;60.31;93205.81;4903198;29;20079;-86
2021/03/16 01:31:22;;;;;;;3.53;2.30;;;;;;;4.77;60.19;93208.34;4936873;29;20059;-85
2021/03/16 01:33:47;;;;;;;4.15;2.90;;;;;;;4.83;60.12;93197.06;4922747;29;20051;-85
2021/03/16 01:36:13;;;;;;;3.00;2.28;;;;;;;4.87;60.61;93206.91;4931915;29;20028;-84
2021/03/16 01:38:38;;;;;;;1.95;1.85;;;;;;;4.93;60.19;93203.41;4915545;29;20532;-85
2021/03/16 01:41:07;;;;;;;1.73;1.63;;;;;;;4.95;60.04;93193.66;4915654;29;20032;-85
2021/03/16 01:43:33;;;;;;;1.40;1.40;;;;;;;4.89;60.41;93190.22;4900781;29;20046;-84
2021/03/16 01:45:59;;;;;;;1.63;1.33;;;;;;;4.92;60.73;93196.69;4916667;29;20522;-85
2021/03/16 01:48:34;;;;;;;2.58;2.38;;;;;;;4.86;61.01;93184.75;4907502;29;20047;-84
2021/03/16 01:51:00;;;;;;;3.50;2.55;;;;;;;4.94;61.36;93190.28;4910102;29;20039;-85
2021/03/16 01:53:26;;;;;;;1.83;1.73;;;;;;;5.03;61.24;93190.66;4933017;29;20036;-84
2021/03/16 01:55:51;;;;;;;1.75;1.65;;;;;;;4.98;60.88;93200.88;4996731;23;20039;-85
2021/03/16 01:58:17;;;;;;;2.13;2.03;;;;;;;4.99;61.71;93187.00;4941991;29;20032;-85
2021/03/16 02:00:42;;;;;;;2.22;1.95;;;;;;;4.94;61.59;93190.28;4945132;28;20031;-85
2021/03/16 02:03:08;;;;;;;1.70;1.55;;;;;;;4.88;61.29;93193.81;4944022;28;20028;-85
2021/03/16 02:05:34;;;;;;;2.00;1.48;;;;;;;4.86;61.32;93192.47;4925213;29;20099;-85
2021/03/16 02:08:25;;;;;;;3.53;1.83;;;;;;;4.83;62.05;93197.06;4927332;29;20416;-85
2021/03/16 02:11:12;;;;;;;1.90;1.80;;;;;;;4.83;61.92;93197.06;4942813;29;20027;-86
2021/03/16 02:14:13;;;;;;;3.63;2.50;;;;;;;4.81;62.50;93193.19;4943958;29;20512;-85
2021/03/16 02:16:47;;;;;;;1.92;1.83;;;;;;;4.80;62.39;93194.97;4923071;29;20047;-84
2021/03/16 02:19:59;;;;;;;2.65;2.40;;;;;;;4.84;62.94;93197.84;4925800;29;20071;-85
2021/03/16 02:22:25;;;;;;;2.70;2.50;;;;;;;4.80;62.97;93192.41;4940436;29;20652;-84
2021/03/16 02:25:03;;;;;;;2.72;2.20;;;;;;;4.77;63.15;93195.47;4947784;29;20049;-84
2021/03/16 02:27:30;;;;;;;1.98;1.88;;;;;;;4.73;63.85;93185.88;4943346;29;20397;-84
2021/03/16 02:29:59;;;;;;;2.28;2.17;;;;;;;4.65;63.59;93199.91;4926525;29;20135;-83
2021/03/16 02:32:26;;;;;;;2.58;2.30;;;;;;;4.37;64.25;93189.66;4943305;29;20036;-84
2021/03/16 02:34:54;;;;;;;2.05;1.95;;;;;;;4.35;64.69;93179.59;4942116;28;20055;-83
2021/03/16 02:37:19;;;;;;;2.10;2.00;;;;;;;4.33;64.71;93184.22;4959346;28;20421;-85
2021/03/16 02:39:45;;;;;;;1.85;1.75;;;;;;;4.37;64.31;93189.66;4927975;29;20051;-85
2021/03/16 02:42:11;;;;;;;2.40;2.20;;;;;;;4.35;64.39;93189.91;4923262;29;20043;-86
2021/03/16 02:44:37;;;;;;;2.00;1.90;;;;;;;4.44;63.67;93192.88;4926832;29;20508;-85
2021/03/16 02:47:03;;;;;;;2.40;2.10;;;;;;;4.45;63.62;93191.88;4910726;29;20039;-85
2021/03/16 02:49:32;;;;;;;1.95;1.85;;;;;;;4.50;62.83;93191.94;4913826;29;20086;-86
2021/03/16 02:51:58;;;;;;;1.83;1.73;;;;;;;4.43;62.55;93186.19;4913806;29;20066;-86
2021/03/16 02:54:23;;;;;;;3.38;2.50;;;;;;;4.48;62.93;93204.25;4931057;29;20081;-86
2021/03/16 02:56:49;;;;;;;1.80;1.70;;;;;;;4.56;61.41;93209.03;4939592;29;20082;-85
2021/03/16 02:59:15;;;;;;;1.85;1.75;;;;;;;4.51;61.46;93201.22;4925528;29;20027;-85
2021/03/16 03:01:40;;;;;;;1.75;1.65;;;;;;;4.60;61.15;93209.34;4921614;29;20503;-84
2021/03/16 03:04:07;;;;;;;2.00;1.90;;;;;;;4.57;61.12;93208.03;4924713;29;20301;-85
2021/03/16 03:06:37;;;;;;;1.23;1.20;;;;;;;4.47;61.38;93197.56;4931179;29;20045;-84
2021/03/16 03:09:04;;;;;;;2.20;1.67;;;;;;;4.43;61.69;93201.63;4926317;29;20035;-85
2021/03/16 03:11:31;;;;;;;2.58;2.03;;;;;;;4.40;62.31;93208.03;4927473;29;20031;-84
2021/03/16 03:13:57;;;;;;;1.85;1.75;;;;;;;4.38;62.32;93209.25;4946882;29;20042;-84
2021/03/16 03:16:23;;;;;;;2.10;2.00;;;;;;;4.38;63.07;93204.09;4929318;29;20503;-85
2021/03/16 03:18:50;;;;;;;2.97;2.42;;;;;;;4.41;63.51;93209.56;4943524;29;20143;-85
2021/03/16 03:21:16;;;;;;;1.95;1.85;;;;;;;4.38;64.17;93217.75;4959416;28;20046;-85
2021/03/16 03:23:49;;;;;;;2.72;2.25;;;;;;;4.40;64.94;93220.88;4926579;28;20095;-86
2021/03/16 03:26:22;;;;;;;3.08;2.53;;;;;;;4.42;64.77;93226.56;4951661;29;20035;-85
2021/03/16 03:28:47;;;;;;;2.22;1.95;;;;;;;4.44;66.12;93221.97;4958420;29;20040;-83
2021/03/16 03:31:15;;;;;;;2.60;2.40;;;;;;;4.39;66.00;93231.38;4947790;29;20059;-84
2021/03/16 03:33:44;;;;;;;2.28;1.95;;;;;;;4.30;66.22;93231.00;4946030;28;20478;-85
2021/03/16 03:36:09;;;;;;;4.03;2.55;;;;;;;4.25;66.56;93230.91;4934400;29;20047;-84
2021/03/16 03:38:34;;;;;;;2.38;2.17;;;;;;;4.20;67.15;93239.31;4929979;29;20027;-83
2021/03/16 03:41:01;;;;;;;3.25;2.92;;;;;;;4.08;67.69;93246.31;4928186;29;20031;-83
2021/03/16 03:43:26;;;;;;;6.10;4.22;;;;;;;4.09;67.12;93232.44;4929634;29;20125;-84
2021/03/16 03:45:52;;;;;;;3.42;2.88;;;;;;;4.03;67.74;93220.50;4910913;29;20125;-83
2021/03/16 03:48:18;;;;;;;2.65;2.45;;;;;;;3.95;67.60;93233.72;4930036;29;20070;-83
2021/03/16 03:50:44;;;;;;;7.32;5.20;;;;;;;3.89;68.27;93237.19;4932660;29;20031;-85
2021/03/16 03:55:41;;;;;;;8.90;4.40;;;;;;;3.66;70.05;93234.72;5000989;23;20059;-85
2021/03/16 03:58:07;;;;;;;6.40;4.63;;;;;;;3.62;70.68;93231.81;4917231;29;20052;-85
2021/03/16 04:00:32;;;;;;;5.47;3.33;;;;;;;3.64;70.54;93229.00;4921051;29;20035;-84
2021/03/16 04:02:59;;;;;;;5.15;3.72;;;;;;;3.65;70.25;93240.84;4920795;29;20480;-85
2021/03/16 04:05:25;;;;;;;9.27;4.75;;;;;;;3.59;69.78;93243.34;4920534;29;20153;-84
2021/03/16 04:07:50;;;;;;;9.07;5.53;;;;;;;3.56;70.28;93238.63;4936773;29;20051;-84
2021/03/16 04:10:16;;;;;;;10.23;5.95;;;;;;;3.51;70.71;93245.47;4898390;29;20036;-84
2021/03/16 04:12:42;;;;;;;8.13;4.30;;;;;;;3.45;71.07;93239.44;4935210;29;20032;-85
2021/03/16 04:15:09;;;;;;;8.10;4.57;;;;;;;3.32;70.88;93239.69;4899509;29;20036;-86
2021/03/16 04:17:35;;;;;;;8.38;3.53;;;;;;;3.36;70.45;93238.22;4918756;29;20038;-85
2021/03/16 04:20:01;;;;;;;7.45;4.18;;;;;;;3.38;69.75;93246.47;4920560;29;20040;-85
2021/03/16 04:22:26;;;;;;;12.63;4.25;;;;;;;3.44;69.77;93250.75;4936520;29;20056;-84
2021/03/16 04:24:53;;;;;;;8.48;4.18;;;;;;;3.43;69.26;93254.31;4934836;29;20035;-85
2021/03/16 04:27:19;;;;;;;14.30;7.63;;;;;;;3.53;70.07;93259.66;4919689;29;20044;-85
2021/03/16 04:29:44;;;;;;;13.27;7.40;;;;;;;3.61;69.31;93255.97;4935817;29;20385;-85
2021/03/16 04:32:10;;;;;;;8.02;5.10;;;;;;;3.63;68.99;93259.06;4923488;28;20493;-86
2021/03/16 04:34:35;;;;;;;11.85;5.03;;;;;;;3.61;68.42;93256.75;4937045;29;20502;-85
2021/03/16 04:37:01;;;;;;;9.02;5.13;;;;;;;3.56;69.07;93269.47;4934300;29;20032;-84
2021/03/16 04:39:27;;;;;;;3.10;2.90;;;;;;;3.64;69.99;93262.44;4932445;29;20478;-84
2021/03/16 04:41:52;;;;;;;10.23;6.18;;;;;;;3.64;68.72;93254.72;4901313;29;20032;-83
2021/03/16 04:44:18;;;;;;;16.27;6.88;;;;;;;3.75;69.29;93256.50;4917162;29;20488;-83
2021/03/16 04:46:43;;;;;;;5.95;3.33;;;;;;;3.74;68.87;93262.59;4935677;29;20103;-84
2021/03/16 04:49:09;;;;;;;5.50;3.67;;;;;;;3.71;69.36;93265.66;4935914;29;20039;-82
2021/03/16 04:51:34;;;;;;;3.17;2.60;;;;;;;3.67;69.11;93259.41;4920639;29;20031;-81
2021/03/16 04:54:00;;;;;;;10.75;5.63;;;;;;;3.66;70.97;93280.97;4919352;29;20051;-83
2021/03/16 04:56:25;;;;;;;4.88;3.67;;;;;;;3.68;69.96;93268.66;4895939;29;20547;-79
2021/03/16 04:58:51;;;;;;;3.28;2.97;;;;;;;3.73;69.36;93273.91;4988580;23;20044;-84
2021/03/16 05:01:17;;;;;;;4.30;2.92;;;;;;;3.72;70.28;93267.97;4933216;29;20036;-84
2021/03/16 05:03:42;;;;;;;7.47;3.40;;;;;;;3.79;70.93;93283.28;4910771;29;20523;-82
2021/03/16 05:06:08;;;;;;;4.55;3.10;;;;;;;3.83;70.02;93284.41;4895417;29;20055;-85
2021/03/16 05:08:33;;;;;;;4.30;2.65;;;;;;;3.82;69.35;93272.56;4918318;29;20119;-84
2021/03/16 05:10:59;;;;;;;4.72;3.30;;;;;;;3.80;70.26;93279.72;4934769;29;20047;-85
2021/03/16 05:13:24;;;;;;;2.80;2.60;;;;;;;3.79;70.03;93285.88;4950911;23;20035;-84
2021/03/16 05:15:50;;;;;;;8.20;4.90;;;;;;;3.82;69.91;93287.97;4926829;29;20094;-84
2021/03/16 05:18:15;;;;;;;7.65;5.53;;;;;;;3.82;70.46;93283.63;4930429;29;20039;-82
2021/03/16 05:20:40;;;;;;;11.52;5.53;;;;;;;3.80;69.77;93282.28;4921023;29;20185;-83
2021/03/16 05:23:06;;;;;;;13.20;6.20;;;;;;;3.72;70.29;93282.63;4927407;29;20036;-83
2021/03/16 05:25:31;;;;;;;16.30;10.30;;;;;;;3.70;70.14;93295.72;4941817;29;20043;-83
2021/03/16 05:27:57;;;;;;;7.75;6.43;;;;;;;3.67;71.23;93290.25;4919527;29;20044;-85
2021/03/16 05:30:23;;;;;;;16.52;9.43;;;;;;;3.72;70.58;93283.41;4918271;29;20043;-85
2021/03/16 05:32:56;;;;;;;26.75;11.35;;;;;;;3.85;70.02;93279.81;4921422;29;20040;-86
2021/03/16 05:35:22;;;;;;;15.60;9.32;;;;;;;3.85;69.61;93287.53;4935075;29;20039;-87
2021/03/16 05:40:19;;;;;;;12.00;7.75;;;;;;;3.93;69.10;93271.75;4999585;23;20508;-82
2021/03/16 05:42:45;;;;;;;10.45;7.20;;;;;;;4.01;70.82;93291.16;4926666;29;20039;-87
2021/03/16 05:45:14;;;;;;;5.15;4.40;;;;;;;3.95;70.56;93303.16;4908508;29;20123;-85
2021/03/16 05:47:40;;;;;;;9.13;5.05;;;;;;;4.01;69.43;93291.94;4931753;29;20416;-84
2021/03/16 05:50:07;;;;;;;10.90;8.00;;;;;;;4.07;69.13;93290.28;4924031;29;20038;-85
2021/03/16 05:52:32;;;;;;;8.85;5.70;;;;;;;4.01;68.60;93291.94;4910461;29;20047;-85
2021/03/16 05:54:58;;;;;;;12.82;9.32;;;;;;;4.02;68.21;93311.50;4925435;29;20390;-85
2021/03/16 05:57:26;;;;;;;9.80;7.28;;;;;;;4.05;69.18;93302.56;4908355;29;20055;-85
2021/03/16 05:59:51;;;;;;;8.50;5.72;;;;;;;4.06;68.55;93307.47;4909612;29;20030;-84
2021/03/16 06:02:17;;;;;;;14.05;5.50;;;;;;;4.07;69.11;93316.78;4895110;29;20122;-85
2021/03/16 06:04:44;;;;;;;6.10;4.93;;;;;;;4.08;67.78;93313.19;4910041;29;20047;-84
2021/03/16 06:07:13;;;;;;;7.10;5.35;;;;;;;4.04;67.79;93317.22;4923051;29;20040;-82
2021/03/16 06:09:38;;;;;;;9.25;5.38;;;;;;;4.14;67.89;93327.69;4918654;29;20040;-84
2021/03/16 06:12:04;;;;;;;6.65;4.93;;;;;;;4.18;67.35;93331.38;4908679;29;20039;-85
2021/03/16 06:14:33;;;;;;;8.35;5.38;;;;;;;4.25;66.66;93326.13;4926910;29;20039;-83
2021/03/16 06:16:59;;;;;;;12.98;6.43;;;;;;;4.22;66.87;93329.91;4894675;29;20040;-78
2021/03/16 06:19:34;;;;;;;22.55;10.65;;;;;;;4.28;67.79;93338.50;4923313;29;20046;-78
2021/03/16 06:22:04;;;;;;;10.55;7.35;;;;;;;4.22;69.23;93335.03;4924401;29;20084;-78
2021/03/16 06:24:30;;;;;;;14.93;8.45;;;;;;;4.25;67.94;93343.34;4922663;29;20036;-78
2021/03/16 06:26:55;;;;;;;11.85;7.82;;;;;;;4.19;66.76;93350.16;4904742;29;20041;-78
2021/03/16 06:29:21;;;;;;;12.18;8.38;;;;;;;4.07;67.58;93349.44;4909688;29;20028;-78
2021/03/16 06:31:46;;;;;;;17.45;11.48;;;;;;;4.13;68.55;93341.56;4927025;29;20040;-78
2021/03/16 06:34:25;;;;;;;11.30;7.28;;;;;;;4.03;67.82;93345.72;4897802;29;20052;-78
2021/03/16 06:36:57;;;;;;;12.75;8.23;;;;;;;4.06;69.23;93364.06;4927867;29;20052;-79
2021/03/16 06:39:23;;;;;;;10.00;7.00;;;;;;;4.09;68.29;93365.41;4925193;29;20035;-79
2021/03/16 06:41:48;;;;;;;22.45;8.63;;;;;;;4.02;68.57;93359.59;4906949;29;20039;-79
2021/03/16 06:44:18;;;;;;;10.93;7.30;;;;;;;3.87;68.13;93376.28;4925491;29;20106;-79
2021/03/16 06:46:50;;;;;;;7.95;6.03;;;;;;;3.76;67.93;93355.75;4925030;29;20063;-79
2021/03/16 06:49:17;;;;;;;21.05;13.50;;;;;;;3.82;69.47;93376.19;4907942;29;20461;-78
2021/03/16 06:51:42;;;;;;;14.75;7.47;;;;;;;3.85;68.60;93362.88;4908519;29;20044;-78
2021/03/16 06:54:09;;;;;;;8.10;4.97;;;;;;;3.78;66.74;93374.28;4924226;29;20027;-78
2021/03/16 06:56:35;;;;;;;11.40;7.05;;;;;;;3.71;68.45;93382.09;4917707;29;20031;-78
2021/03/16 06:59:00;;;;;;;11.13;6.43;;;;;;;3.76;67.72;93376.31;4942483;29;20036;-78
2021/03/16 07:01:35;;;;;;;13.30;8.10;;;;;;;3.77;69.48;93388.16;4915203;29;20035;-79
2021/03/16 07:04:14;;;;;;;8.63;7.22;;;;;;;3.75;67.44;93383.25;4919387;29;20056;-78
2021/03/16 07:06:41;;;;;;;22.02;10.77;;;;;;;3.74;67.69;93373.97;4931677;29;20110;-78
2021/03/16 07:09:06;;;;;;;15.73;8.93;;;;;;;3.76;67.20;93389.94;4936066;29;20066;-78
2021/03/16 07:11:32;;;;;;;13.88;7.43;;;;;;;3.82;66.31;93393.41;4921839;29;20040;-80
2021/03/16 07:13:57;;;;;;;13.90;6.57;;;;;;;3.81;66.87;93400.31;4931585;29;20036;-78
2021/03/16 07:16:23;;;;;;;15.40;9.85;;;;;;;3.81;66.99;93394.41;4911160;29;20056;-78
2021/03/16 07:18:48;;;;;;;6.57;5.65;;;;;;;3.86;65.45;93407.34;4923320;29;20048;-80
2021/03/16 07:21:40;;;;;;;12.70;7.85;;;;;;;3.75;65.47;93408.16;4908903;29;20048;-80
2021/03/16 07:24:07;;;;;;;17.25;9.50;;;;;;;3.73;66.14;93412.72;4925475;29;20033;-80
2021/03/16 07:26:33;;;;;;;12.50;8.20;;;;;;;3.83;66.35;93407.81;4909147;29;20061;-79
2021/03/16 07:29:00;;;;;;;15.55;9.70;;;;;;;3.89;65.07;93397.41;4893430;29;20035;-79
2021/03/16 07:31:30;;;;;;;11.15;6.82;;;;;;;3.94;64.26;93409.59;4896534;29;20051;-79
2021/03/16 07:33:56;;;;;;;11.13;7.13;;;;;;;3.93;64.70;93415.75;4899188;29;20039;-78
2021/03/16 07:36:21;;;;;;;16.17;9.55;;;;;;;3.93;64.86;93413.19;4913257;29;20075;-80
2021/03/16 07:38:47;;;;;;;15.65;10.93;;;;;;;4.00;64.86;93400.97;4925966;29;20042;-79
2021/03/16 07:41:12;;;;;;;10.63;6.43;;;;;;;3.97;63.90;93419.44;4910228;29;20024;-79
2021/03/16 07:43:41;;;;;;;11.43;7.45;;;;;;;3.98;63.48;93421.00;4914400;29;20455;-82
2021/03/16 07:46:48;;;;;;;16.70;7.25;;;;;;;3.97;63.04;93429.72;4900467;29;20103;-83
2021/03/16 07:49:16;;;;;;;8.73;6.95;;;;;;;3.85;63.71;93436.66;4930610;29;20036;-82
2021/03/16 07:51:45;;;;;;;9.73;8.02;;;;;;;3.80;64.40;93428.84;4928160;29;20493;-80
2021/03/16 07:54:11;;;;;;;13.57;9.75;;;;;;;3.73;63.25;93428.16;4926867;29;20040;-82
2021/03/16 07:56:40;;;;;;;19.17;13.00;;;;;;;3.71;64.09;93435.31;5406784;23;20035;-83
2021/03/16 07:59:05;;;;;;;15.82;8.45;;;;;;;3.57;63.29;93420.09;4965485;28;20027;-81
2021/03/16 08:01:31;;;;;;;12.38;9.60;;;;;;;3.55;63.89;93437.53;4966524;28;20054;-83
2021/03/16 08:04:17;;;;;;;15.77;9.52;;;;;;;3.60;64.15;93432.53;4944963;29;20042;-82
2021/03/16 08:06:42;;;;;;;13.88;8.35;;;;;;;3.67;63.81;93424.69;4948544;29;20051;-83
2021/03/16 08:09:19;;;;;;;7.43;6.22;;;;;;;3.73;62.85;93438.44;4967396;28;20051;-82
2021/03/16 08:11:45;;;;;;;8.25;6.68;;;;;;;3.82;62.13;93442.25;4956387;28;20048;-83
2021/03/16 08:14:10;;;;;;;8.55;6.68;;;;;;;3.85;61.65;93441.78;4950858;29;20120;-83
2021/03/16 08:16:43;;;;;;;15.18;9.93;;;;;;;3.78;61.52;93448.84;4949763;29;20035;-83
2021/03/16 08:19:12;;;;;;;8.52;7.40;;;;;;;3.82;61.72;93447.38;4937328;29;20038;-83
2021/03/16 08:21:38;;;;;;;10.30;7.13;;;;;;;3.75;61.54;93447.50;4955510;28;20085;-83
2021/03/16 08:24:11;;;;;;;17.95;13.00;;;;;;;3.79;62.28;93450.41;4955381;28;20113;-83
2021/03/16 08:26:50;;;;;;;6.30;5.70;;;;;;;3.87;60.48;93445.72;4938954;29;20032;-84
2021/03/16 08:29:16;;;;;;;9.27;6.50;;;;;;;3.84;60.84;93458.22;4937513;29;20039;-83
2021/03/16 08:31:41;;;;;;;8.52;5.97;;;;;;;3.90;60.33;93445.28;4936521;29;20058;-83
2021/03/16 08:34:08;;;;;;;8.75;6.72;;;;;;;3.80;60.32;93450.19;4937327;29;20035;-83
2021/03/16 08:36:40;;;;;;;13.30;8.23;;;;;;;3.77;61.16;93437.00;4937701;29;20087;-82
2021/03/16 08:39:06;;;;;;;;;;;;;;;3.78;60.38;93452.19;4936493;29;20094;-83
2021/03/16 08:41:31;;;;;;;9.88;6.63;;;;;;;3.79;59.80;93437.56;4953776;29;19922;-83
2021/03/16 08:43:57;;;;;;;6.38;5.72;;;;;;;3.78;60.22;93452.19;4952715;29;20505;-83
2021/03/16 08:46:38;;;;;;;11.95;9.55;;;;;;;3.80;61.02;93450.19;4927741;29;20046;-83
2021/03/16 08:49:06;;;;;;;9.88;7.40;;;;;;;3.83;60.42;93447.16;4940692;29;20106;-85
2021/03/16 08:51:34;;;;;;;20.80;9.10;;;;;;;3.89;60.24;93448.03;4950325;28;20141;-82
2021/03/16 08:53:59;;;;;;;5.88;5.32;;;;;;;3.85;60.69;93454.66;4956253;28;20051;-81
2021/03/16 08:56:25;;;;;;;16.98;10.32;;;;;;;3.86;61.01;93453.66;4941120;29;20036;-81
2021/03/16 08:58:50;;;;;;;10.68;8.23;;;;;;;3.86;60.61;93454.44;4921239;29;20046;-83
2021/03/16 09:01:29;;;;;;;11.32;6.93;;;;;;;3.89;59.81;93440.34;4940822;28;20039;-81
2021/03/16 09:03:55;;;;;;;8.55;7.35;;;;;;;3.86;59.86;93456.22;4945351;29;20475;-83
2021/03/16 09:06:20;;;;;;;27.90;19.23;;;;;;;3.82;59.77;93462.81;4931646;29;20035;-81
2021/03/16 09:08:50;;;;;;;25.15;19.50;;;;;;;3.80;60.03;93450.19;4927445;29;20050;-82
2021/03/16 09:11:32;;;;;;;14.23;9.70;;;;;;;3.72;60.26;93462.56;5000341;23;20044;-82
2021/03/16 09:14:11;;;;;;;7.57;6.13;;;;;;;3.75;60.17;93457.00;4925198;29;20052;-82
2021/03/16 09:16:44;;;;;;;8.18;7.18;;;;;;;3.74;60.38;93465.69;4912522;29;20497;-82
2021/03/16 09:19:10;;;;;;;;;;;;;;;3.77;60.49;93453.22;4926462;29;20036;-82
2021/03/16 09:21:36;;;;;;;9.93;8.20;;;;;;;3.81;59.98;93456.09;4944751;29;19989;-82
2021/03/16 09:24:05;;;;;;;13.38;8.07;;;;;;;3.81;59.67;93467.19;4926999;29;20035;-82
2021/03/16 09:26:31;;;;;;;21.92;14.25;;;;;;;3.82;60.04;93462.81;4926632;29;20039;-82
2021/03/16 09:28:59;;;;;;;23.00;14.90;;;;;;;3.78;60.18;93472.78;4929018;29;20051;-82
2021/03/16 09:31:25;;;;;;;23.27;15.00;;;;;;;3.83;60.17;93472.09;4928390;29;20032;-82
2021/03/16 09:33:50;;;;;;;14.88;8.55;;;;;;;3.94;59.75;93476.47;4942584;29;20134;-82
2021/03/16 09:36:25;;;;;;;12.75;7.35;;;;;;;4.01;59.60;93478.91;4922496;29;20091;-83
2021/03/16 09:38:57;;;;;;;12.18;8.38;;;;;;;3.98;59.85;93451.09;4942301;29;20032;-82
2021/03/16 09:41:22;;;;;;;10.97;7.13;;;;;;;4.02;60.20;93473.53;4911543;29;20091;-82
2021/03/16 09:43:48;;;;;;;17.70;9.93;;;;;;;4.11;59.73;93477.38;4909378;29;20300;-84
2021/03/16 09:46:14;;;;;;;20.13;9.23;;;;;;;4.18;58.68;93451.50;4922930;29;20040;-82
2021/03/16 09:48:45;;;;;;;28.48;11.82;;;;;;;4.12;59.14;93463.50;4942415;29;20047;-83
2021/03/16 09:51:15;;;;;;;21.65;9.30;;;;;;;4.08;59.48;93477.03;4926184;29;20035;-82
2021/03/16 09:53:50;;;;;;;19.45;11.05;;;;;;;4.15;59.93;93487.97;4939721;29;20504;-81
2021/03/16 09:56:16;;;;;;;17.67;9.57;;;;;;;4.12;60.33;93486.66;4940583;29;20039;-84
2021/03/16 09:58:51;;;;;;;13.43;7.97;;;;;;;4.20;60.56;93481.16;4924283;29;20047;-83
2021/03/16 10:01:21;;;;;;;10.55;7.35;;;;;;;4.25;60.00;93477.13;4924607;29;20032;-83
2021/03/16 10:04:00;;;;;;;13.15;8.30;;;;;;;4.25;59.85;93482.28;4915911;29;20055;-83
2021/03/16 10:06:36;;;;;;;7.60;6.18;;;;;;;4.07;59.82;93483.97;4941304;29;20062;-83
2021/03/16 10:09:15;;;;;;;8.38;6.20;;;;;;;3.85;61.37;93496.56;4917401;29;20063;-82
2021/03/16 10:11:41;;;;;;;13.15;10.65;;;;;;;3.85;61.75;93477.78;4926554;29;20039;-83
2021/03/16 10:14:07;;;;;;;10.70;7.97;;;;;;;3.76;62.67;93492.00;4911249;29;20043;-83
2021/03/16 10:16:32;;;;;;;11.80;8.35;;;;;;;3.87;62.28;93506.63;4926012;29;20411;-83
2021/03/16 10:18:58;;;;;;;16.73;10.05;;;;;;;3.92;62.38;93491.34;4940786;29;20039;-83
2021/03/16 10:21:34;;;;;;;18.98;10.10;;;;;;;3.98;62.15;93510.22;4941525;29;20036;-83
2021/03/16 10:24:01;;;;;;;25.65;11.75;;;;;;;3.94;62.57;93501.41;4925721;29;20120;-82
2021/03/16 10:26:27;;;;;;;18.17;10.77;;;;;;;3.94;63.40;93509.13;4927472;29;20080;-82
2021/03/16 10:28:52;;;;;;;15.02;8.52;;;;;;;3.95;64.00;93519.19;4929361;29;20036;-82
2021/03/16 10:31:27;;;;;;;16.98;11.48;;;;;;;3.93;63.99;93500.63;4914766;29;20044;-81
2021/03/16 10:33:54;;;;;;;32.85;16.63;;;;;;;3.92;65.40;93502.41;4938909;29;20099;-80
2021/03/16 10:36:20;;;;;;;17.60;10.98;;;;;;;3.95;65.33;93508.91;4912525;29;20071;-81
2021/03/16 10:38:49;;;;;;;10.93;8.32;;;;;;;3.99;65.90;93515.16;4934145;29;20068;-81
2021/03/16 10:41:19;;;;;;;17.60;11.43;;;;;;;4.16;65.56;93520.41;4923759;29;20047;-81
2021/03/16 10:43:44;;;;;;;21.65;13.02;;;;;;;4.23;65.31;93515.97;4940615;29;20028;-82
2021/03/16 10:46:10;;;;;;;26.92;16.42;;;;;;;4.25;66.05;93518.31;4940180;29;20051;-81
2021/03/16 10:48:36;;;;;;;18.63;11.98;;;;;;;4.22;64.47;93520.28;4939573;29;20601;-82
2021/03/16 10:51:02;;;;;;;22.77;12.40;;;;;;;4.27;64.56;93526.56;4932738;29;20035;-81
2021/03/16 10:53:27;;;;;;;26.92;16.70;;;;;;;4.26;66.50;93520.66;4949028;29;20031;-80
2021/03/16 10:55:53;;;;;;;21.05;12.88;;;;;;;4.25;65.09;93526.03;4927144;29;20407;-82
2021/03/16 10:58:18;;;;;;;20.98;10.80;;;;;;;4.20;66.12;93516.38;4943369;29;20040;-82
2021/03/16 11:01:01;;;;;;;9.25;8.15;;;;;;;4.14;65.50;93515.50;4909138;29;20054;-82
2021/03/16 11:06:38;;;;;;;28.90;17.27;;;;;;;4.19;65.34;93525.09;4931300;29;20060;-81
2021/03/16 11:09:03;;;;;;;7.68;6.90;;;;;;;4.04;64.57;93522.19;4954213;28;20047;-82
2021/03/16 11:11:32;;;;;;;15.88;11.20;;;;;;;3.86;67.30;93518.72;4935628;28;20047;-81
2021/03/16 11:14:24;;;;;;;30.50;22.50;;;;;;;3.88;67.46;93518.50;4927030;29;20043;-82
2021/03/16 11:17:21;;;;;;;28.45;18.52;;;;;;;3.82;65.63;93515.03;4939901;29;20036;-81
2021/03/16 11:19:54;;;;;;;24.58;13.90;;;;;;;3.65;68.06;93518.47;4932094;29;20103;-82
2021/03/16 11:22:22;;;;;;;19.52;12.32;;;;;;;3.77;67.74;93507.19;4936522;29;20035;-82
2021/03/16 11:24:50;;;;;;;17.58;11.77;;;;;;;3.89;67.49;93514.91;4913095;29;20024;-82
2021/03/16 11:27:16;;;;;;;14.25;10.13;;;;;;;3.64;67.64;93501.47;4910885;29;20083;-81
2021/03/16 11:30:04;;;;;;;18.40;11.98;;;;;;;3.93;68.71;93521.19;4911865;29;20043;-82
2021/03/16 11:32:44;;;;;;;21.95;13.95;;;;;;;4.07;67.19;93526.91;4928671;29;20039;-82
2021/03/16 11:35:10;;;;;;;17.45;11.27;;;;;;;4.01;68.00;93502.84;4944088;29;20092;-82
2021/03/16 11:37:36;;;;;;;13.48;10.57;;;;;;;4.19;67.41;93518.16;4926674;29;20043;-82
2021/03/16 11:40:01;;;;;;;23.98;16.45;;;;;;;4.20;67.10;93518.94;4913369;29;20055;-82
2021/03/16 11:42:30;;;;;;;25.77;17.00;;;;;;;4.02;68.00;93514.69;4926559;29;20036;-80
2021/03/16 11:44:56;;;;;;;26.48;16.48;;;;;;;3.95;68.72;93508.13;4940371;29;20041;-80
2021/03/16 11:47:22;;;;;;;26.13;15.65;;;;;;;3.92;68.50;93528.13;4908929;29;20036;-80
2021/03/16 11:49:47;;;;;;;28.15;17.50;;;;;;;3.91;69.20;93518.06;4903483;29;20035;-80
2021/03/16 11:52:13;;;;;;;22.25;12.27;;;;;;;3.84;68.77;93517.38;4937773;29;20515;-81